createdAt,value
2023-01-31T00:00:15.432Z,649.00
2023-01-31T00:00:45.465Z,648.00
2023-01-31T00:01:15.544Z,650.00
2023-01-31T00:01:45.641Z,648.00
2023-01-31T00:02:15.782Z,648.00
2023-01-31T00:02:45.834Z,648.00
2023-01-31T00:03:15.884Z,648.00
2023-01-31T00:03:45.904Z,650.00
2023-01-31T00:04:15.976Z,650.00
2023-01-31T00:04:46.068Z,648.00
2023-01-31T00:05:16.133Z,645.00
2023-01-31T00:05:46.223Z,646.00
2023-01-31T00:06:16.307Z,641.00
2023-01-31T00:06:46.399Z,642.00
2023-01-31T00:07:16.482Z,641.00
2023-01-31T00:07:46.559Z,642.00
2023-01-31T00:08:16.644Z,642.00
2023-01-31T00:08:46.727Z,643.00
2023-01-31T00:09:16.821Z,642.00
2023-01-31T00:09:46.883Z,643.00
2023-01-31T00:10:16.973Z,644.00
2023-01-31T00:10:47.077Z,643.00
2023-01-31T00:11:17.149Z,641.00
2023-01-31T00:11:47.239Z,644.00
2023-01-31T00:12:17.321Z,644.00
2023-01-31T00:12:47.399Z,643.00
2023-01-31T00:13:17.478Z,644.00
2023-01-31T00:13:47.557Z,645.00
2023-01-31T00:14:17.638Z,645.00
2023-01-31T00:14:47.723Z,644.00
2023-01-31T00:15:18.307Z,645.00
2023-01-31T00:15:47.849Z,645.00
2023-01-31T00:16:17.913Z,643.00
2023-01-31T00:16:47.995Z,644.00
2023-01-31T00:17:18.077Z,644.00
2023-01-31T00:17:48.164Z,645.00
2023-01-31T00:18:18.251Z,645.00
2023-01-31T00:18:48.358Z,643.00
2023-01-31T00:19:18.415Z,644.00
2023-01-31T00:19:48.503Z,643.00
2023-01-31T00:20:18.595Z,643.00
2023-01-31T00:20:48.664Z,644.00
2023-01-31T00:21:18.747Z,644.00
2023-01-31T00:21:48.831Z,645.00
2023-01-31T00:22:18.907Z,644.00
2023-01-31T00:22:48.998Z,645.00
2023-01-31T00:23:19.081Z,644.00
2023-01-31T00:23:49.152Z,645.00
2023-01-31T00:24:19.230Z,643.00
2023-01-31T00:24:49.315Z,642.00
2023-01-31T00:25:19.690Z,641.00
2023-01-31T00:25:49.469Z,640.00
2023-01-31T00:26:19.605Z,643.00
2023-01-31T00:26:49.611Z,641.00
2023-01-31T00:27:19.559Z,643.00
2023-01-31T00:27:49.643Z,643.00
2023-01-31T00:28:19.728Z,644.00
2023-01-31T00:28:49.906Z,646.00
2023-01-31T00:29:19.858Z,644.00
2023-01-31T00:29:49.966Z,643.00
2023-01-31T00:30:20.041Z,642.00
2023-01-31T00:30:50.114Z,642.00
2023-01-31T00:31:20.343Z,639.00
2023-01-31T00:31:50.353Z,640.00
2023-01-31T00:32:20.398Z,640.00
2023-01-31T00:32:50.382Z,640.00
2023-01-31T00:33:20.463Z,638.00
2023-01-31T00:33:50.543Z,638.00
2023-01-31T00:34:20.645Z,639.00
2023-01-31T00:34:50.714Z,637.00
2023-01-31T00:35:21.219Z,636.00
2023-01-31T00:35:50.817Z,636.00
2023-01-31T00:36:20.898Z,634.00
2023-01-31T00:36:50.980Z,632.00
2023-01-31T00:37:21.087Z,629.00
2023-01-31T00:37:51.163Z,630.00
2023-01-31T00:38:21.242Z,630.00
2023-01-31T00:38:51.324Z,630.00
2023-01-31T00:39:21.414Z,630.00
2023-01-31T00:39:51.505Z,630.00
2023-01-31T00:40:21.585Z,631.00
2023-01-31T00:40:51.667Z,631.00
2023-01-31T00:41:21.740Z,631.00
2023-01-31T00:41:51.829Z,631.00
2023-01-31T00:42:21.913Z,632.00
2023-01-31T00:42:51.995Z,634.00
2023-01-31T00:43:22.073Z,632.00
2023-01-31T00:43:52.171Z,635.00
2023-01-31T00:44:22.241Z,635.00
2023-01-31T00:44:52.326Z,637.00
2023-01-31T00:45:22.544Z,638.00
2023-01-31T00:45:52.500Z,637.00
2023-01-31T00:46:22.703Z,635.00
2023-01-31T00:46:52.734Z,635.00
2023-01-31T00:47:22.691Z,633.00
2023-01-31T00:47:52.768Z,632.00
2023-01-31T00:48:22.850Z,634.00
2023-01-31T00:48:52.947Z,632.00
2023-01-31T00:49:23.060Z,630.00
2023-01-31T00:49:53.120Z,628.00
2023-01-31T00:50:23.187Z,625.00
2023-01-31T00:50:53.473Z,624.00
2023-01-31T00:51:25.573Z,626.00
2023-01-31T00:51:53.328Z,626.00
2023-01-31T00:52:23.467Z,625.00
2023-01-31T00:52:53.380Z,629.00
2023-01-31T00:53:23.427Z,630.00
2023-01-31T00:53:53.463Z,627.00
2023-01-31T00:54:23.499Z,629.00
2023-01-31T00:54:53.542Z,627.00
2023-01-31T00:55:23.566Z,626.00
2023-01-31T00:55:53.665Z,626.00
2023-01-31T00:56:23.691Z,628.00
2023-01-31T00:56:53.751Z,627.00
2023-01-31T00:57:23.771Z,625.00
2023-01-31T00:57:53.817Z,624.00
2023-01-31T00:58:23.848Z,623.00
2023-01-31T00:58:53.893Z,623.00
2023-01-31T00:59:23.915Z,627.00
2023-01-31T00:59:53.979Z,626.00
2023-01-31T01:00:23.991Z,627.00
2023-01-31T01:00:54.066Z,627.00
2023-01-31T01:01:24.125Z,625.00
2023-01-31T01:01:54.236Z,626.00
2023-01-31T01:02:24.303Z,624.00
2023-01-31T01:02:54.384Z,622.00
2023-01-31T01:03:24.465Z,622.00
2023-01-31T01:03:54.609Z,624.00
2023-01-31T01:04:24.581Z,621.00
2023-01-31T01:04:54.696Z,619.00
2023-01-31T01:05:24.777Z,620.00
2023-01-31T01:05:54.866Z,623.00
2023-01-31T01:06:24.962Z,621.00
2023-01-31T01:06:55.039Z,623.00
2023-01-31T01:07:25.120Z,621.00
2023-01-31T01:07:55.194Z,622.00
2023-01-31T01:08:25.279Z,619.00
2023-01-31T01:08:55.363Z,621.00
2023-01-31T01:09:25.448Z,623.00
2023-01-31T01:09:55.524Z,624.00
2023-01-31T01:10:25.606Z,626.00
2023-01-31T01:10:55.709Z,627.00
2023-01-31T01:11:25.801Z,626.00
2023-01-31T01:11:55.889Z,626.00
2023-01-31T01:12:25.966Z,626.00
2023-01-31T01:12:56.052Z,627.00
2023-01-31T01:13:26.134Z,627.00
2023-01-31T01:13:56.229Z,627.00
2023-01-31T01:14:26.311Z,627.00
2023-01-31T01:14:56.391Z,624.00
2023-01-31T01:15:26.469Z,624.00
2023-01-31T01:15:56.585Z,623.00
2023-01-31T01:16:26.708Z,622.00
2023-01-31T01:16:56.666Z,623.00
2023-01-31T01:17:26.750Z,625.00
2023-01-31T01:17:56.824Z,627.00
2023-01-31T01:18:27.078Z,627.00
2023-01-31T01:18:57.021Z,627.00
2023-01-31T01:19:27.107Z,628.00
2023-01-31T01:19:57.216Z,628.00
2023-01-31T01:20:27.274Z,628.00
2023-01-31T01:20:57.379Z,630.00
2023-01-31T01:21:27.489Z,631.00
2023-01-31T01:21:57.555Z,632.00
2023-01-31T01:22:27.637Z,627.00
2023-01-31T01:22:57.712Z,630.00
2023-01-31T01:23:27.805Z,630.00
2023-01-31T01:23:57.884Z,630.00
2023-01-31T01:24:27.964Z,630.00
2023-01-31T01:24:58.054Z,629.00
2023-01-31T01:25:28.145Z,629.00
2023-01-31T01:25:58.221Z,629.00
2023-01-31T01:26:28.353Z,628.00
2023-01-31T01:26:58.302Z,628.00
2023-01-31T01:27:28.389Z,629.00
2023-01-31T01:27:58.389Z,625.00
2023-01-31T01:28:29.136Z,625.00
2023-01-31T01:28:58.525Z,625.00
2023-01-31T01:29:28.604Z,624.00
2023-01-31T01:29:58.685Z,625.00
2023-01-31T01:30:28.775Z,625.00
2023-01-31T01:30:58.925Z,626.00
2023-01-31T01:31:28.996Z,624.00
2023-01-31T01:31:59.003Z,623.00
2023-01-31T01:32:28.993Z,620.00
2023-01-31T01:32:59.080Z,618.00
2023-01-31T01:33:29.635Z,619.00
2023-01-31T01:33:59.271Z,621.00
2023-01-31T01:34:29.489Z,620.00
2023-01-31T01:34:59.471Z,622.00
2023-01-31T01:35:29.530Z,623.00
2023-01-31T01:35:59.628Z,622.00
2023-01-31T01:36:29.702Z,620.00
2023-01-31T01:36:59.784Z,621.00
2023-01-31T01:37:29.873Z,621.00
2023-01-31T01:37:59.939Z,619.00
2023-01-31T01:38:30.378Z,619.00
2023-01-31T01:39:00.095Z,619.00
2023-01-31T01:39:30.502Z,617.00
2023-01-31T01:40:00.198Z,617.00
2023-01-31T01:40:30.286Z,618.00
2023-01-31T01:41:00.368Z,617.00
2023-01-31T01:41:30.974Z,619.00
2023-01-31T01:42:00.452Z,618.00
2023-01-31T01:42:30.874Z,616.00
2023-01-31T01:43:00.586Z,617.00
2023-01-31T01:43:30.808Z,619.00
2023-01-31T01:44:00.729Z,617.00
2023-01-31T01:44:30.817Z,615.00
2023-01-31T01:45:00.908Z,615.00
2023-01-31T01:45:31.050Z,615.00
2023-01-31T01:46:01.144Z,614.00
2023-01-31T01:46:31.716Z,615.00
2023-01-31T01:47:01.254Z,617.00
2023-01-31T01:47:31.552Z,618.00
2023-01-31T01:48:01.389Z,619.00
2023-01-31T01:48:31.466Z,620.00
2023-01-31T01:49:01.615Z,619.00
2023-01-31T01:49:31.561Z,620.00
2023-01-31T01:50:01.673Z,620.00
2023-01-31T01:50:32.211Z,619.00
2023-01-31T01:51:01.786Z,619.00
2023-01-31T01:51:32.124Z,619.00
2023-01-31T01:52:01.894Z,618.00
2023-01-31T01:52:32.143Z,619.00
2023-01-31T01:53:02.047Z,619.00
2023-01-31T01:53:32.086Z,618.00
2023-01-31T01:54:02.123Z,620.00
2023-01-31T01:54:32.799Z,620.00
2023-01-31T01:55:02.293Z,619.00
2023-01-31T01:55:32.336Z,621.00
2023-01-31T01:56:02.383Z,620.00
2023-01-31T01:56:32.438Z,622.00
2023-01-31T01:57:02.454Z,622.00
2023-01-31T01:57:32.485Z,623.00
2023-01-31T01:58:02.513Z,623.00
2023-01-31T01:58:32.539Z,623.00
2023-01-31T01:59:02.591Z,620.00
2023-01-31T01:59:32.615Z,619.00
2023-01-31T02:00:02.642Z,618.00
2023-01-31T02:00:32.697Z,616.00
2023-01-31T02:01:02.787Z,616.00
2023-01-31T02:01:32.894Z,616.00
2023-01-31T02:02:02.917Z,616.00
2023-01-31T02:02:32.986Z,616.00
2023-01-31T02:03:02.936Z,618.00
2023-01-31T02:03:33.025Z,616.00
2023-01-31T02:04:03.105Z,614.00
2023-01-31T02:04:33.171Z,615.00
2023-01-31T02:05:03.262Z,612.00
2023-01-31T02:05:33.343Z,612.00
2023-01-31T02:06:03.453Z,612.00
2023-01-31T02:06:33.548Z,613.00
2023-01-31T02:07:03.623Z,612.00
2023-01-31T02:07:33.703Z,612.00
2023-01-31T02:08:03.781Z,612.00
2023-01-31T02:08:33.877Z,613.00
2023-01-31T02:09:03.953Z,611.00
2023-01-31T02:09:34.038Z,614.00
2023-01-31T02:10:04.107Z,614.00
2023-01-31T02:10:34.191Z,613.00
2023-01-31T02:11:04.277Z,613.00
2023-01-31T02:11:34.389Z,616.00
2023-01-31T02:12:04.346Z,612.00
2023-01-31T02:12:34.425Z,613.00
2023-01-31T02:13:04.515Z,613.00
2023-01-31T02:13:34.599Z,612.00
2023-01-31T02:14:04.666Z,613.00
2023-01-31T02:14:34.750Z,611.00
2023-01-31T02:15:04.841Z,609.00
2023-01-31T02:15:34.917Z,613.00
2023-01-31T02:16:05.002Z,613.00
2023-01-31T02:16:35.181Z,615.00
2023-01-31T02:17:05.130Z,614.00
2023-01-31T02:17:35.219Z,614.00
2023-01-31T02:18:05.301Z,614.00
2023-01-31T02:18:35.369Z,617.00
2023-01-31T02:19:05.453Z,617.00
2023-01-31T02:19:35.556Z,616.00
2023-01-31T02:20:05.618Z,614.00
2023-01-31T02:20:35.699Z,614.00
2023-01-31T02:21:05.802Z,612.00
2023-01-31T02:21:35.870Z,610.00
2023-01-31T02:22:05.950Z,610.00
2023-01-31T02:22:36.042Z,609.00
2023-01-31T02:23:06.118Z,609.00
2023-01-31T02:23:36.196Z,609.00
2023-01-31T02:24:06.294Z,608.00
2023-01-31T02:24:37.038Z,609.00
2023-01-31T02:25:06.420Z,608.00
2023-01-31T02:25:36.864Z,609.00
2023-01-31T02:26:06.529Z,611.00
2023-01-31T02:26:37.185Z,611.00
2023-01-31T02:27:06.670Z,608.00
2023-01-31T02:27:37.020Z,609.00
2023-01-31T02:28:06.865Z,610.00
2023-01-31T02:28:36.953Z,611.00
2023-01-31T02:29:07.028Z,610.00
2023-01-31T02:29:37.101Z,608.00
2023-01-31T02:30:07.191Z,608.00
2023-01-31T02:30:37.317Z,608.00
2023-01-31T02:31:07.321Z,609.00
2023-01-31T02:31:37.457Z,609.00
2023-01-31T02:32:09.344Z,607.00
2023-01-31T02:32:37.451Z,608.00
2023-01-31T02:33:07.519Z,608.00
2023-01-31T02:33:37.587Z,607.00
2023-01-31T02:34:07.670Z,607.00
2023-01-31T02:34:37.759Z,607.00
2023-01-31T02:35:07.835Z,607.00
2023-01-31T02:35:37.919Z,607.00
2023-01-31T02:36:08.040Z,608.00
2023-01-31T02:36:38.093Z,608.00
2023-01-31T02:37:08.187Z,608.00
2023-01-31T02:37:38.266Z,610.00
2023-01-31T02:38:08.350Z,611.00
2023-01-31T02:38:38.435Z,610.00
2023-01-31T02:39:08.531Z,610.00
2023-01-31T02:39:38.620Z,611.00
2023-01-31T02:40:08.704Z,609.00
2023-01-31T02:40:38.778Z,607.00
2023-01-31T02:41:08.858Z,607.00
2023-01-31T02:41:38.948Z,606.00
2023-01-31T02:42:09.064Z,605.00
2023-01-31T02:42:39.141Z,605.00
2023-01-31T02:43:09.221Z,607.00
2023-01-31T02:43:39.312Z,609.00
2023-01-31T02:44:09.398Z,609.00
2023-01-31T02:44:39.488Z,609.00
2023-01-31T02:45:09.554Z,609.00
2023-01-31T02:45:39.691Z,609.00
2023-01-31T02:46:09.710Z,609.00
2023-01-31T02:46:39.669Z,608.00
2023-01-31T02:47:09.765Z,610.00
2023-01-31T02:47:39.848Z,609.00
2023-01-31T02:48:09.917Z,609.00
2023-01-31T02:48:40.005Z,607.00
2023-01-31T02:49:10.092Z,609.00
2023-01-31T02:49:40.189Z,609.00
2023-01-31T02:50:10.247Z,607.00
2023-01-31T02:50:40.331Z,607.00
2023-01-31T02:51:10.412Z,609.00
2023-01-31T02:51:40.428Z,608.00
2023-01-31T02:52:10.477Z,610.00
2023-01-31T02:52:40.520Z,610.00
2023-01-31T02:53:10.552Z,610.00
2023-01-31T02:53:40.611Z,610.00
2023-01-31T02:54:10.642Z,610.00
2023-01-31T02:54:40.683Z,610.00
2023-01-31T02:55:10.714Z,610.00
2023-01-31T02:55:40.754Z,611.00
2023-01-31T02:56:10.798Z,611.00
2023-01-31T02:56:40.835Z,611.00
2023-01-31T02:57:10.883Z,611.00
2023-01-31T02:57:40.915Z,611.00
2023-01-31T02:58:10.960Z,609.00
2023-01-31T02:58:40.991Z,608.00
2023-01-31T02:59:11.607Z,610.00
2023-01-31T02:59:41.146Z,609.00
2023-01-31T03:00:11.237Z,609.00
2023-01-31T03:00:41.286Z,610.00
2023-01-31T03:01:11.366Z,609.00
2023-01-31T03:01:41.548Z,607.00
2023-01-31T03:02:11.573Z,607.00
2023-01-31T03:02:41.724Z,606.00
2023-01-31T03:03:11.692Z,604.00
2023-01-31T03:03:41.773Z,603.00
2023-01-31T03:04:11.846Z,601.00
2023-01-31T03:04:41.930Z,600.00
2023-01-31T03:05:12.014Z,599.00
2023-01-31T03:05:42.101Z,600.00
2023-01-31T03:06:12.216Z,600.00
2023-01-31T03:06:42.272Z,600.00
2023-01-31T03:07:12.346Z,600.00
2023-01-31T03:07:42.423Z,600.00
2023-01-31T03:08:12.512Z,600.00
2023-01-31T03:08:42.602Z,600.00
2023-01-31T03:09:12.688Z,601.00
2023-01-31T03:09:42.759Z,602.00
2023-01-31T03:10:12.863Z,603.00
2023-01-31T03:10:42.941Z,603.00
2023-01-31T03:11:13.010Z,604.00
2023-01-31T03:11:43.094Z,604.00
2023-01-31T03:12:13.173Z,602.00
2023-01-31T03:12:43.270Z,602.00
2023-01-31T03:13:13.366Z,604.00
2023-01-31T03:13:43.444Z,602.00
2023-01-31T03:14:13.525Z,606.00
2023-01-31T03:14:43.616Z,605.00
2023-01-31T03:15:13.727Z,603.00
2023-01-31T03:15:43.779Z,602.00
2023-01-31T03:16:13.856Z,602.00
2023-01-31T03:16:44.109Z,601.00
2023-01-31T03:17:14.049Z,599.00
2023-01-31T03:17:44.132Z,597.00
2023-01-31T03:18:14.227Z,598.00
2023-01-31T03:18:44.291Z,598.00
2023-01-31T03:19:14.372Z,599.00
2023-01-31T03:19:44.461Z,599.00
2023-01-31T03:20:14.544Z,600.00
2023-01-31T03:20:44.614Z,601.00
2023-01-31T03:21:14.732Z,600.00
2023-01-31T03:21:44.805Z,601.00
2023-01-31T03:22:14.888Z,600.00
2023-01-31T03:22:44.984Z,600.00
2023-01-31T03:23:15.047Z,602.00
2023-01-31T03:23:45.134Z,601.00
2023-01-31T03:24:15.215Z,601.00
2023-01-31T03:24:45.301Z,601.00
2023-01-31T03:25:15.373Z,602.00
2023-01-31T03:25:45.468Z,604.00
2023-01-31T03:26:15.593Z,603.00
2023-01-31T03:26:45.607Z,600.00
2023-01-31T03:27:15.548Z,598.00
2023-01-31T03:27:45.640Z,599.00
2023-01-31T03:28:15.727Z,601.00
2023-01-31T03:28:45.809Z,601.00
2023-01-31T03:29:16.343Z,600.00
2023-01-31T03:29:45.937Z,600.00
2023-01-31T03:30:16.204Z,597.00
2023-01-31T03:30:46.112Z,599.00
2023-01-31T03:31:16.502Z,598.00
2023-01-31T03:31:46.153Z,598.00
2023-01-31T03:32:16.110Z,600.00
2023-01-31T03:32:46.186Z,601.00
2023-01-31T03:33:16.301Z,602.00
2023-01-31T03:33:46.353Z,603.00
2023-01-31T03:34:16.887Z,603.00
2023-01-31T03:34:46.495Z,603.00
2023-01-31T03:35:16.813Z,603.00
2023-01-31T03:35:46.657Z,603.00
2023-01-31T03:36:16.789Z,605.00
2023-01-31T03:36:46.871Z,605.00
2023-01-31T03:37:16.924Z,605.00
2023-01-31T03:37:47.009Z,604.00
2023-01-31T03:38:17.679Z,604.00
2023-01-31T03:38:47.179Z,604.00
2023-01-31T03:39:17.718Z,605.00
2023-01-31T03:39:47.366Z,605.00
2023-01-31T03:40:17.646Z,604.00
2023-01-31T03:40:47.515Z,601.00
2023-01-31T03:41:17.594Z,599.00
2023-01-31T03:41:47.692Z,601.00
2023-01-31T03:42:17.761Z,603.00
2023-01-31T03:42:47.865Z,604.00
2023-01-31T03:43:18.095Z,604.00
2023-01-31T03:43:48.031Z,605.00
2023-01-31T03:44:18.242Z,605.00
2023-01-31T03:44:48.181Z,604.00
2023-01-31T03:45:19.053Z,605.00
2023-01-31T03:45:48.406Z,603.00
2023-01-31T03:46:18.390Z,605.00
2023-01-31T03:46:48.463Z,605.00
2023-01-31T03:47:18.584Z,606.00
2023-01-31T03:47:48.653Z,607.00
2023-01-31T03:48:18.739Z,606.00
2023-01-31T03:48:48.820Z,606.00
2023-01-31T03:49:18.904Z,608.00
2023-01-31T03:49:48.988Z,607.00
2023-01-31T03:50:19.073Z,606.00
2023-01-31T03:50:49.140Z,606.00
2023-01-31T03:51:19.164Z,604.00
2023-01-31T03:51:49.213Z,603.00
2023-01-31T03:52:19.274Z,602.00
2023-01-31T03:52:49.294Z,601.00
2023-01-31T03:53:19.328Z,601.00
2023-01-31T03:53:49.382Z,599.00
2023-01-31T03:54:19.414Z,597.00
2023-01-31T03:54:49.468Z,596.00
2023-01-31T03:55:19.855Z,595.00
2023-01-31T03:55:49.526Z,596.00
2023-01-31T03:56:19.560Z,595.00
2023-01-31T03:56:49.602Z,594.00
2023-01-31T03:57:19.641Z,593.00
2023-01-31T03:57:49.675Z,596.00
2023-01-31T03:58:19.728Z,597.00
2023-01-31T03:58:49.749Z,597.00
2023-01-31T03:59:19.806Z,597.00
2023-01-31T03:59:49.829Z,599.00
2023-01-31T04:00:19.887Z,600.00
2023-01-31T04:00:49.912Z,602.00
2023-01-31T04:01:20.047Z,599.00
2023-01-31T04:01:50.065Z,598.00
2023-01-31T04:02:20.020Z,598.00
2023-01-31T04:02:50.132Z,596.00
2023-01-31T04:03:20.203Z,597.00
2023-01-31T04:03:50.283Z,595.00
2023-01-31T04:04:20.360Z,594.00
2023-01-31T04:04:50.477Z,593.00
2023-01-31T04:05:20.946Z,592.00
2023-01-31T04:05:50.627Z,592.00
2023-01-31T04:06:20.712Z,593.00
2023-01-31T04:06:50.802Z,595.00
2023-01-31T04:07:20.911Z,595.00
2023-01-31T04:07:50.967Z,596.00
2023-01-31T04:08:21.053Z,596.00
2023-01-31T04:08:51.136Z,595.00
2023-01-31T04:09:23.122Z,592.00
2023-01-31T04:09:51.309Z,593.00
2023-01-31T04:10:21.400Z,593.00
2023-01-31T04:10:51.465Z,592.00
2023-01-31T04:11:21.563Z,591.00
2023-01-31T04:11:51.640Z,592.00
2023-01-31T04:12:21.724Z,592.00
2023-01-31T04:12:51.799Z,594.00
2023-01-31T04:13:21.888Z,592.00
2023-01-31T04:13:51.990Z,593.00
2023-01-31T04:14:22.059Z,592.00
2023-01-31T04:14:52.136Z,592.00
2023-01-31T04:15:22.524Z,590.00
2023-01-31T04:15:52.329Z,589.00
2023-01-31T04:16:22.445Z,589.00
2023-01-31T04:16:52.426Z,590.00
2023-01-31T04:17:22.508Z,593.00
2023-01-31T04:17:52.592Z,594.00
2023-01-31T04:18:22.683Z,594.00
2023-01-31T04:18:52.769Z,594.00
2023-01-31T04:19:22.860Z,595.00
2023-01-31T04:19:52.933Z,594.00
2023-01-31T04:20:23.018Z,595.00
2023-01-31T04:20:53.107Z,593.00
2023-01-31T04:21:23.191Z,595.00
2023-01-31T04:21:53.280Z,595.00
2023-01-31T04:22:23.393Z,596.00
2023-01-31T04:22:53.462Z,596.00
2023-01-31T04:23:23.542Z,596.00
2023-01-31T04:23:53.635Z,596.00
2023-01-31T04:24:23.720Z,596.00
2023-01-31T04:24:53.803Z,594.00
2023-01-31T04:25:23.916Z,594.00
2023-01-31T04:25:53.991Z,594.00
2023-01-31T04:26:24.094Z,595.00
2023-01-31T04:26:54.183Z,596.00
2023-01-31T04:27:24.251Z,596.00
2023-01-31T04:27:54.323Z,597.00
2023-01-31T04:28:24.420Z,599.00
2023-01-31T04:28:54.500Z,599.00
2023-01-31T04:29:24.585Z,601.00
2023-01-31T04:29:54.662Z,601.00
2023-01-31T04:30:24.757Z,601.00
2023-01-31T04:30:54.949Z,600.00
2023-01-31T04:31:25.112Z,601.00
2023-01-31T04:31:55.150Z,600.00
2023-01-31T04:32:25.040Z,599.00
2023-01-31T04:32:55.120Z,598.00
2023-01-31T04:33:25.205Z,597.00
2023-01-31T04:33:55.278Z,596.00
2023-01-31T04:34:25.363Z,594.00
2023-01-31T04:34:55.450Z,595.00
2023-01-31T04:35:25.532Z,594.00
2023-01-31T04:35:55.617Z,596.00
2023-01-31T04:36:25.697Z,596.00
2023-01-31T04:36:55.791Z,594.00
2023-01-31T04:37:25.906Z,594.00
2023-01-31T04:37:55.964Z,594.00
2023-01-31T04:38:26.047Z,594.00
2023-01-31T04:38:56.137Z,593.00
2023-01-31T04:39:26.221Z,591.00
2023-01-31T04:39:56.256Z,591.00
2023-01-31T04:40:26.323Z,592.00
2023-01-31T04:40:56.403Z,593.00
2023-01-31T04:41:26.529Z,593.00
2023-01-31T04:41:56.495Z,593.00
2023-01-31T04:42:26.592Z,591.00
2023-01-31T04:42:56.659Z,591.00
2023-01-31T04:43:26.745Z,592.00
2023-01-31T04:43:56.849Z,592.00
2023-01-31T04:44:26.925Z,592.00
2023-01-31T04:44:57.003Z,591.00
2023-01-31T04:45:27.072Z,592.00
2023-01-31T04:45:57.158Z,592.00
2023-01-31T04:46:27.327Z,592.00
2023-01-31T04:46:57.330Z,593.00
2023-01-31T04:47:27.278Z,593.00
2023-01-31T04:47:57.377Z,594.00
2023-01-31T04:48:29.016Z,595.00
2023-01-31T04:48:57.503Z,596.00
2023-01-31T04:49:27.583Z,597.00
2023-01-31T04:49:57.672Z,596.00
2023-01-31T04:50:27.753Z,596.00
2023-01-31T04:50:57.831Z,596.00
2023-01-31T04:51:27.853Z,595.00
2023-01-31T04:51:57.901Z,594.00
2023-01-31T04:52:27.972Z,594.00
2023-01-31T04:52:57.988Z,593.00
2023-01-31T04:53:28.019Z,592.00
2023-01-31T04:53:58.068Z,590.00
2023-01-31T04:54:28.103Z,590.00
2023-01-31T04:54:58.135Z,589.00
2023-01-31T04:55:28.181Z,589.00
2023-01-31T04:55:58.214Z,590.00
2023-01-31T04:56:28.270Z,588.00
2023-01-31T04:56:58.300Z,587.00
2023-01-31T04:57:28.345Z,588.00
2023-01-31T04:57:58.373Z,590.00
2023-01-31T04:58:28.413Z,591.00
2023-01-31T04:58:58.450Z,591.00
2023-01-31T04:59:28.485Z,593.00
2023-01-31T04:59:58.524Z,593.00
2023-01-31T05:00:28.580Z,593.00
2023-01-31T05:00:58.677Z,596.00
2023-01-31T05:01:28.647Z,596.00
2023-01-31T05:01:58.726Z,594.00
2023-01-31T05:02:28.863Z,594.00
2023-01-31T05:02:58.810Z,594.00
2023-01-31T05:03:28.900Z,593.00
2023-01-31T05:03:58.994Z,593.00
2023-01-31T05:04:29.090Z,592.00
2023-01-31T05:04:59.157Z,593.00
2023-01-31T05:05:29.244Z,592.00
2023-01-31T05:05:59.334Z,591.00
2023-01-31T05:06:29.419Z,591.00
2023-01-31T05:06:59.519Z,590.00
2023-01-31T05:07:29.573Z,590.00
2023-01-31T05:07:59.688Z,590.00
2023-01-31T05:08:29.739Z,590.00
2023-01-31T05:08:59.815Z,591.00
2023-01-31T05:09:29.911Z,592.00
2023-01-31T05:09:59.994Z,591.00
2023-01-31T05:10:30.085Z,593.00
2023-01-31T05:11:02.253Z,596.00
2023-01-31T05:11:30.161Z,596.00
2023-01-31T05:12:00.246Z,596.00
2023-01-31T05:12:30.321Z,595.00
2023-01-31T05:13:00.412Z,593.00
2023-01-31T05:13:30.487Z,594.00
2023-01-31T05:14:00.564Z,599.00
2023-01-31T05:14:30.649Z,599.00
2023-01-31T05:15:00.733Z,604.00
2023-01-31T05:15:31.487Z,603.00
2023-01-31T05:16:00.908Z,602.00
2023-01-31T05:16:31.538Z,604.00
2023-01-31T05:17:00.969Z,605.00
2023-01-31T05:17:31.453Z,606.00
2023-01-31T05:18:01.140Z,606.00
2023-01-31T05:18:31.472Z,607.00
2023-01-31T05:19:01.318Z,610.00
2023-01-31T05:19:31.532Z,610.00
2023-01-31T05:20:01.477Z,611.00
2023-01-31T05:20:31.556Z,613.00
2023-01-31T05:21:01.646Z,613.00
2023-01-31T05:21:31.725Z,613.00
2023-01-31T05:22:01.806Z,613.00
2023-01-31T05:22:31.893Z,613.00
2023-01-31T05:23:02.022Z,615.00
2023-01-31T05:23:32.544Z,616.00
2023-01-31T05:24:02.153Z,617.00
2023-01-31T05:24:32.723Z,620.00
2023-01-31T05:25:02.267Z,621.00
2023-01-31T05:25:32.477Z,621.00
2023-01-31T05:26:02.408Z,620.00
2023-01-31T05:26:32.595Z,619.00
2023-01-31T05:27:02.568Z,619.00
2023-01-31T05:27:32.637Z,620.00
2023-01-31T05:28:03.220Z,622.00
2023-01-31T05:28:32.795Z,621.00
2023-01-31T05:29:03.201Z,622.00
2023-01-31T05:29:32.903Z,626.00
2023-01-31T05:30:03.115Z,624.00
2023-01-31T05:30:32.988Z,624.00
2023-01-31T05:31:03.170Z,623.00
2023-01-31T05:31:33.142Z,626.00
2023-01-31T05:32:03.776Z,628.00
2023-01-31T05:32:33.308Z,631.00
2023-01-31T05:33:03.870Z,632.00
2023-01-31T05:33:33.519Z,634.00
2023-01-31T05:34:04.157Z,634.00
2023-01-31T05:34:33.660Z,636.00
2023-01-31T05:35:03.760Z,637.00
2023-01-31T05:35:33.803Z,639.00
2023-01-31T05:36:03.883Z,640.00
2023-01-31T05:36:33.971Z,640.00
2023-01-31T05:37:04.070Z,641.00
2023-01-31T05:37:34.143Z,641.00
2023-01-31T05:38:04.289Z,644.00
2023-01-31T05:38:34.219Z,643.00
2023-01-31T05:39:04.304Z,642.00
2023-01-31T05:39:34.389Z,643.00
2023-01-31T05:40:04.499Z,643.00
2023-01-31T05:40:34.567Z,645.00
2023-01-31T05:41:04.654Z,646.00
2023-01-31T05:41:34.729Z,648.00
2023-01-31T05:42:04.809Z,648.00
2023-01-31T05:42:34.902Z,648.00
2023-01-31T05:43:04.983Z,648.00
2023-01-31T05:43:36.456Z,646.00
2023-01-31T05:44:05.186Z,646.00
2023-01-31T05:44:35.293Z,648.00
2023-01-31T05:45:05.376Z,647.00
2023-01-31T05:45:35.465Z,647.00
2023-01-31T05:46:06.120Z,647.00
2023-01-31T05:46:35.638Z,648.00
2023-01-31T05:47:06.088Z,647.00
2023-01-31T05:47:35.807Z,649.00
2023-01-31T05:48:05.898Z,651.00
2023-01-31T05:48:35.980Z,652.00
2023-01-31T05:49:06.061Z,656.00
2023-01-31T05:49:36.682Z,656.00
2023-01-31T05:50:06.655Z,655.00
2023-01-31T05:50:36.265Z,656.00
2023-01-31T05:51:06.305Z,656.00
2023-01-31T05:51:36.335Z,658.00
2023-01-31T05:52:06.391Z,659.00
2023-01-31T05:52:36.421Z,660.00
2023-01-31T05:53:06.501Z,660.00
2023-01-31T05:53:36.499Z,660.00
2023-01-31T05:54:06.542Z,661.00
2023-01-31T05:54:36.614Z,661.00
2023-01-31T05:55:06.638Z,660.00
2023-01-31T05:55:36.676Z,661.00
2023-01-31T05:56:06.705Z,662.00
2023-01-31T05:56:36.753Z,660.00
2023-01-31T05:57:06.782Z,662.00
2023-01-31T05:57:36.829Z,663.00
2023-01-31T05:58:06.861Z,664.00
2023-01-31T05:58:36.910Z,665.00
2023-01-31T05:59:06.957Z,666.00
2023-01-31T05:59:36.982Z,667.00
2023-01-31T06:00:07.018Z,668.00
2023-01-31T06:00:37.067Z,670.00
2023-01-31T06:01:07.147Z,669.00
2023-01-31T06:01:37.219Z,669.00
2023-01-31T06:02:07.363Z,670.00
2023-01-31T06:02:37.307Z,673.00
2023-01-31T06:03:07.424Z,674.00
2023-01-31T06:03:37.610Z,676.00
2023-01-31T06:04:07.607Z,676.00
2023-01-31T06:04:37.683Z,674.00
2023-01-31T06:05:07.783Z,673.00
2023-01-31T06:05:37.871Z,674.00
2023-01-31T06:06:07.956Z,673.00
2023-01-31T06:06:38.027Z,676.00
2023-01-31T06:07:08.116Z,677.00
2023-01-31T06:07:38.208Z,677.00
2023-01-31T06:08:08.298Z,677.00
2023-01-31T06:08:38.409Z,678.00
2023-01-31T06:09:08.480Z,679.00
2023-01-31T06:09:38.556Z,681.00
2023-01-31T06:10:08.641Z,681.00
2023-01-31T06:10:38.729Z,680.00
2023-01-31T06:11:08.809Z,682.00
2023-01-31T06:11:38.923Z,682.00
2023-01-31T06:12:08.974Z,684.00
2023-01-31T06:12:39.071Z,683.00
2023-01-31T06:13:09.160Z,682.00
2023-01-31T06:13:39.238Z,684.00
2023-01-31T06:14:09.326Z,686.00
2023-01-31T06:14:39.416Z,685.00
2023-01-31T06:15:09.525Z,685.00